Sweeney Granite Mountains, California Weather observations

Data are for 10 minute period ending at time listed.
 Day   Time   Solar   Ave.   Ave.  Ave.  Vector  Max.   Baro.   Total    
  of    of     Rad.   Air    Rel.  Wind   Wind   Wind  Press.  Precip.   
Year   Day            Temp.  Hum.  Speed  Dir.   Gust                    
2014   (PST)  Kw/m2    F      %     mph   deg.    mph    mb.     in.     
-------------------------------------------------------------------------
 112   11:10   0.59   72.2     9    6.1   267    15.9   865.8    0.00 
 112   11:20   0.54   71.3     9    6.2   271    13.2   865.7    0.00 
 112   11:30   0.55   71.3    10    5.5   262    11.0   865.6    0.00 
 112   11:40   0.56   69.7    10    6.8   275    14.9   865.6    0.00 
 112   11:50   0.81   70.5    11    4.8   236    11.0   865.5    0.00 
 112   12:00   0.92   71.3    11    7.0   232    15.6   865.4    0.00 
 112   12:10   0.99   71.9    11    8.4   269    16.8   865.3    0.00 
 112   12:20   0.89   71.3    12    8.5   280    15.2   865.4    0.00 
 112   12:30   0.94   71.4    12    8.1   276    14.0   865.3    0.00 
 112   12:40   1.00   71.1    13    8.8   276    17.8   865.4    0.00 
 112   12:50   0.92   72.0    13    6.4   254    17.8   865.4    0.00 
 112   13:00   0.96   71.1    12    9.3   289    18.9   865.3    0.00 
 112   13:10   0.95   71.0    13   11.2   288    21.3   865.2    0.00 
 112   13:20   0.95   71.8    14    6.6   247    15.3   865.0    0.00 
 112   13:30   0.93   70.8    15   10.8   275    22.3   864.9    0.00 
 112   13:40   0.91   70.7    16   10.6   271    20.9   864.8    0.00 
 112   13:50   0.88   71.1    17   10.8   269    19.5   864.5    0.00 
 112   14:00   0.86   71.6    17   10.5   266    19.0   864.3    0.00 
 112   14:10   0.84   72.2    17   12.3   272    25.0   864.1    0.00 
 112   14:20   0.80   71.2    17   14.5   270    24.1   864.1    0.00 
 112   14:30   0.77   70.7    17   10.6   268    22.0   864.0    0.00 
 112   14:40   0.75   70.6    16   12.8   270    24.0   863.9    0.00 
 112   14:50   0.72   70.9    14   10.2   280    19.9   863.9    0.00 
 112   15:00   0.69   71.4    13   11.4   276    19.9   863.8    0.00 
 112   15:10   0.65   69.7    14   17.2   283    27.8   863.8    0.00 
 112   15:20   0.62   69.1    14   16.1   286    27.9   863.8    0.00 
 112   15:30   0.59   68.6    14   15.5   265    30.2   863.6    0.00 
 112   15:40   0.56   67.8    14   22.2   278    36.0   863.3    0.00 
 112   15:50   0.52   67.2    14   18.3   278    35.3   863.2    0.00 
 112   16:00   0.49   67.3    12   20.6   294    32.6   863.2    0.00 
 112   16:10   0.46   67.3    13   15.1   297    26.7   863.2    0.00 
 112   16:20   0.42   66.0    12   20.4   275    31.1   863.1    0.00 
 112   16:30   0.38   65.9    13   19.7   293    30.0   863.1    0.00 
 112   16:40   0.34   65.0    13   21.8   296    35.5   862.9    0.00 
 112   16:50   0.31   64.7    12   21.1   278    35.8   862.8    0.00 
 112   17:00   0.27   63.7    10   20.8   279    34.6   862.7    0.00 
 112   17:10   0.22   63.3    10   13.8   286    30.9   863.1    0.00 
 112   17:20   0.19   62.4    13   15.1   293    25.1   863.1    0.00 
 112   17:30   0.06   60.9    16   11.0   307    24.8   863.1    0.00 
 112   17:40   0.03   59.9    19   13.4   304    23.1   862.9    0.00 
 112   17:50   0.02   59.3    20   19.9   287    32.7   862.5    0.00 
 112   18:00   0.01   58.9    18   24.2   294    35.4   862.2    0.00 
 112   18:10   0.01   58.8    15   27.8   294    38.7   861.8    0.00 
 112   18:20   0.00   58.4    14   28.2   300    45.4   861.8    0.00 
 112   18:30   0.00   58.1    13   33.2   293    50.8   861.5    0.00 
 112   18:40   0.00   57.7    12   30.3   296    42.8   861.9    0.00 
 112   18:50   0.00   57.3    12   28.2   295    37.8   861.9    0.00 
 112   19:00   0.00   57.1    12   29.4   294    46.8   861.8    0.00 
 112   19:10   0.00   57.0    12   29.9   297    42.7   861.7    0.00 
 112   19:20   0.00   57.0    12   30.8   299    41.7   861.6    0.00 
 112   19:30   0.00   56.6    12   30.2   293    44.8   861.6    0.00 
 112   19:40   0.00   56.8    11   27.4   285    41.1   861.5    0.00 
 112   19:50   0.00   56.4    12   28.4   297    39.5   861.6    0.00 
 112   20:00   0.00   55.9    13   30.6   292    43.4   861.5    0.00 
 112   20:10   0.00   55.7    13   29.7   302    41.1   861.7    0.00 
 112   20:20   0.00   55.4    13   32.2   302    47.9   861.6    0.00 
 112   20:30   0.00   55.3    12   31.5   304    47.1   861.8    0.00 
 112   20:40   0.00   54.8    13   36.8   303    50.9   861.8    0.00 
 112   20:50   0.00   54.4    14   33.6   310    47.0   861.8    0.00 
 112   21:00   0.00   54.1    14   31.5   309    41.9   861.7    0.00 
 112   21:10   0.00   53.9    15   30.6   312    44.6   861.7    0.00 
 112   21:20   0.00   53.7    15   35.0   312    48.1   861.8    0.00 
 112   21:30   0.00   53.5    15   34.0   314    48.4   862.0    0.00 
 112   21:40   0.00   52.5    17   29.5   314    46.8   862.3    0.00 
 112   21:50   0.00   52.1    18   27.4   323    38.5   862.8    0.00 
 112   22:00   0.00   51.8    18   28.0   323    42.9   863.0    0.00 
 112   22:10   0.00   51.4    18   30.3   317    40.3   862.8    0.00 
 112   22:20   0.00   51.1    19   28.6   320    38.9   863.1    0.00 
 112   22:30   0.00   51.4    19   25.4   330    38.1   863.3    0.00 
 112   22:40   0.00   51.0    20   28.8   320    43.3   862.9    0.00 
 112   22:50   0.00   50.6    20   32.4   317    47.0   862.6    0.00 
 112   23:00   0.00   50.7    20   33.6   314    45.9   862.1    0.00 
 112   23:10   0.00   51.4    19   31.5   313    46.2   862.0    0.00 
 112   23:20   0.00   51.0    20   31.5   312    42.6   862.1    0.00 
 112   23:30   0.00   50.7    20   29.7   307    41.3   862.2    0.00 
 112   23:40   0.00   50.3    21   27.9   308    39.6   862.6    0.00 
 112   23:50   0.00   50.1    21   29.0   310    43.1   862.7    0.00 
 113    0:00   0.00   50.2    22   25.9   310    38.5   862.8    0.00 
 113    0:10   0.00   50.0    22   27.5   313    40.0   863.0    0.00 
 113    0:20   0.00   49.7    22   28.6   310    38.9   863.0    0.00 
 113    0:30   0.00   49.5    23   28.8   312    39.1   863.1    0.00 
 113    0:40   0.00   49.5    23   29.0   313    38.1   863.1    0.00 
 113    0:50   0.00   49.5    23   29.1   315    38.4   863.1    0.00 
 113    1:00   0.00   49.7    23   27.2   308    36.8   863.1    0.00 
 113    1:10   0.00   49.3    24   26.1   313    34.7   863.1    0.00 
 113    1:20   0.00   48.8    24   23.7   313    33.4   863.1    0.00 
 113    1:30   0.00   49.5    24   22.2   314    32.6   863.2    0.00 
 113    1:40   0.00   49.5    24   23.1   313    32.5   863.2    0.00 
 113    1:50   0.00   49.7    23   24.8   314    32.3   863.2    0.00 
 113    2:00   0.00   49.9    23   22.6   318    30.2   863.2    0.00 
 113    2:10   0.00   49.9    23   24.9   312    30.5   863.3    0.00 
 113    2:20   0.00   49.8    23   23.2   316    32.1   863.3    0.00 
 113    2:30   0.00   49.7    24   21.6   316    28.9   863.3    0.00 
 113    2:40   0.00   50.4    23   19.7   318    30.0   863.3    0.00 
 113    2:50   0.00   50.8    22   18.7   312    28.2   863.3    0.00 
 113    3:00   0.00   51.2    22   20.6   309    28.7   863.5    0.00 
 113    3:10   0.00   51.5    21   21.3   310    28.9   863.6    0.00 
 113    3:20   0.00   50.6    23   22.1   314    29.1   863.7    0.00 
 113    3:30   0.00   49.2    24   22.1   315    29.2   863.8    0.00 
 113    3:40   0.00   49.2    24   21.4   313    31.9   863.9    0.00 
 113    3:50   0.00   49.3    24   23.7   311    30.4   863.9    0.00 
 113    4:00   0.00   49.3    24   22.4   310    33.0   863.9    0.00 
 113    4:10   0.00   49.4    24   22.3   312    28.8   864.0    0.00 
 113    4:20   0.00   49.6    23   23.8   309    32.1   864.0    0.00 
 113    4:30   0.00   49.4    24   22.9   312    32.1   864.1    0.00 
 113    4:40   0.00   49.4    24   23.6   311    32.1   864.2    0.00 
 113    4:50   0.00   49.5    24   22.5   312    31.0   864.4    0.00 
 113    5:00   0.00   49.6    23   22.6   310    31.5   864.3    0.00 
 113    5:10   0.00   49.9    20   21.9   310    29.3   864.3    0.00 
 113    5:20   0.01   50.3    19   21.4   307    29.6   864.3    0.00 
 113    5:30   0.01   50.1    19   22.0   309    30.6   864.5    0.00 
 113    5:40   0.02   50.1    19   20.1   312    29.9   864.6    0.00 
 113    5:50   0.07   50.4    19   21.0   306    29.8   864.7    0.00 
 113    6:00   0.11   50.9    18   18.7   314    28.8   864.8    0.00 
 113    6:10   0.15   51.3    18   19.7   310    27.4   865.0    0.00 
 113    6:20   0.19   51.7    18   19.3   313    28.0   865.3    0.00 
 113    6:30   0.23   51.8    18   20.1   308    27.8   865.4    0.00 
 113    6:40   0.27   51.8    18   22.0   310    28.6   865.5    0.00 
 113    6:50   0.30   52.0    18   21.2   310    31.6   865.6    0.00 
 113    7:00   0.34   52.1    18   19.9   311    30.7   865.7    0.00 
 113    7:10   0.38   52.4    18   22.7   303    31.0   865.7    0.00 
 113    7:20   0.42   52.6    18   19.8   308    31.0   865.9    0.00 
 113    7:30   0.46   53.0    18   19.0   310    27.0   865.9    0.00 
 113    7:40   0.50   53.3    18   19.0   308    28.2   865.8    0.00 
 113    7:50   0.53   53.7    17   16.8   314    25.4   866.0    0.00 
 113    8:00   0.57   54.2    17   18.8   308    26.7   866.2    0.00 
 113    8:10   0.60   54.3    17   19.1   307    29.7   866.4    0.00 
 113    8:20   0.64   54.4    17   17.9   308    29.4   866.6    0.00 
 113    8:30   0.68   54.9    17   17.5   309    25.4   866.7    0.00 
 113    8:40   0.72   55.0    17   19.1   314    27.8   866.8    0.00 
 113    8:50   0.74   54.8    17   18.4   312    29.0   866.9    0.00 
 113    9:00   0.77   55.3    16   18.6   311    31.1   867.0    0.00 
 113    9:10   0.80   55.9    16   17.7   309    28.4   866.9    0.00 
 113    9:20   0.83   56.3    15   15.8   320    25.6   867.0    0.00 
 113    9:30   0.85   57.1    14   16.4   315    24.2   867.3    0.00 
 113    9:40   0.88   57.7    14   16.5   310    25.6   867.4    0.00 
 113    9:50   0.90   57.8    14   16.4   310    26.8   867.5    0.00 
 113   10:00   0.92   58.4    14   15.3   311    25.2   867.5    0.00 
 113   10:10   0.95   58.1    14   11.0   343    22.9   867.8    0.00 
 113   10:20   0.96   58.9    14    6.1   340    13.5   868.1    0.00 
 113   10:30   0.98   58.2    15    7.5    31    14.9   868.2    0.00 
 113   10:40   0.99   59.0    15    6.0   353    17.2   868.1    0.00 
 113   10:50   1.00   59.5    15    6.2    45    15.6   868.1    0.00 
 113   11:00   1.01   58.8    16    9.3    17    21.5   868.1    0.00 

Return to Sweeney Granite Mountains graphs page.


Western Regional Climate Center,wrcc@dri.edu